ADDS METAR Data INFO
IDs: Format: Raw Decoded Include TAF

Data at: 1943 UTC 18 Feb 2018

KFIN 181850Z 07009KT 7SM SKC 23/17 A3023
KFIN 181750Z 00000KT 7SM SKC 25/17 A3025
KFIN 181650Z 02003KT 7SM SKC 22/18 A3027
KFIN 181610Z 02003KT 7SM SCT005 SCT007 20/17 A3028
KFIN 181550Z 00000KT 5SM BR OVC005 18/17 A3028
KFIN 181450Z 00000KT 3SM BR OVC003 17/17 A3027
KFIN 181350Z 3103KT 1SM BR OVC003 16/16 A3026
KFIN 181250Z 27003KT 1/4SM FG OVC003 16/16 A3024
KFIN 181150Z 00000KT 1/4SM FG OVC003 15/15 A3020
KFIN 181050Z 00000KT 5SM BR SKC 16/15 A3018
KFIN 181035Z AUTO 00000KT 7SM CLR 16/15 A3018 RMK AO2 T01550153
KFIN 181015Z AUTO 00000KT 10SM CLR 15/15 A3017 RMK AO2 T01500145
KFIN 180955Z AUTO 00000KT 4SM BR CLR 16/15 A3017 RMK AO2 T01550153
KFIN 180935Z AUTO 00000KT 7SM CLR 15/15 A3016 RMK AO2 T01510148
KFIN 180915Z AUTO 21003KT 5SM BR CLR 15/15 A3016 RMK AO2 T01520149
KFIN 180855Z AUTO 20003KT 7SM CLR 16/15 A3017 RMK AO2 T01550152
KFIN 180835Z AUTO 00000KT 7SM CLR 16/16 A3018 RMK AO2 T01600157
KFIN 180815Z AUTO 22004KT 10SM CLR 16/16 A3017 RMK AO2 T01590156
KFIN 180755Z AUTO 00000KT 10SM CLR 17/16 A3018 RMK AO2 T01670164
KFIN 180735Z AUTO 00000KT 10SM CLR 17/16 A3019 RMK AO2 T01670163
KFIN 180715Z AUTO 00000KT 10SM CLR 17/16 A3019 RMK AO2 T01680163
KFIN 180655Z AUTO 27003KT 10SM CLR 17/16 A3019 RMK AO2 T01680162
KFIN 180635Z AUTO 00000KT 10SM CLR 17/16 A3019 RMK AO2 T01700163
KFIN 180615Z AUTO 20003KT 10SM CLR 17/16 A3019 RMK AO2 T01660158
KFIN 180555Z AUTO 21003KT 10SM CLR 17/16 A3019 RMK AO2 T01710162 10236 20166 402680160
KFIN 180455Z AUTO 00000KT 10SM CLR 18/17 A3020 RMK AO2 T01790165
KFIN 180435Z AUTO 00000KT 10SM CLR 18/16 A3020 RMK AO2 T01790163
KFIN 180415Z AUTO 00000KT 10SM CLR 18/16 A3020 RMK AO2 T01820163
KFIN 180355Z AUTO 00000KT 10SM CLR 18/16 A3020 RMK AO2 T01820161
KFIN 180315Z AUTO 27003KT 10SM CLR 19/16 A3020 RMK AO2 T01920163
KFIN 180255Z AUTO 00000KT 10SM CLR 20/17 A3021 RMK AO2 T02020165
KFIN 180155Z AUTO 26003KT 10SM CLR 22/17 A3020 RMK AO2 T02150165
KFIN 180135Z AUTO 26003KT 10SM CLR 22/17 A3020 RMK AO2 T02200165
KFIN 180115Z AUTO 27006KT 10SM CLR 23/17 A3020 RMK AO2 T02260165
KFIN 180055Z AUTO 28005KT 10SM SCT044 23/17 A3019 RMK AO2 T02300166
KFIN 172350Z 00000KT 7SM BKN042 24/17 A3017
KFIN 172250Z 23005KT 7SM SKC 25/17 A3016
KFIN 172150Z 22009KT 7SM SKC 26/16 A3014
KFIN 172050Z 23006KT 7SM SCT045 26/16 A3013
KFIN 171950Z 27009KT 7SM SCT041 26/16 A3013
KFIN 171850Z 25008KT 7SM SCT039 26/16 A3014
KFIN 171750Z 23006KT 7SM SCT037 26/17 A3019
KFIN 171650Z 25004KT 7SM SKC 24/17 A3019
KFIN 171550Z 22005KT 7SM SCT011 20/17 A3021
KFIN 171450Z 26004KT 7SM OVC007 19/17 A3021
KFIN 171350Z 26004KT 5SM BR OVC005 18/17 A3020
KFIN 171250Z 28004KT 5SM BR OVC005 18/17 A3019
KFIN 171150Z 28005KT 3SM BR OVC005 18/17 A3018
KFIN 171050Z 29004KT 7SM OVC003 18/17 A3017
KFIN 171035Z AUTO 29005KT 5SM BR OVC003 18/17 A3016 RMK AO2 T01750173
KFIN 171015Z AUTO 29006KT 3/4SM BR OVC003 17/17 A3016 RMK AO2 T01730172
KFIN 170955Z AUTO 29004KT 1/4SM FG OVC003 17/17 A3016 RMK AO2 T01700169
KFIN 170935Z AUTO 28005KT 1/4SM FG OVC003 17/17 A3015 RMK AO2 T01660165
KFIN 170915Z AUTO 30004KT M1/4SM FG OVC003 17/16 A3015 RMK AO2 T01650163
KFIN 170855Z AUTO 30004KT 1/4SM FG OVC003 16/16 A3015 RMK AO2 T01640162
KFIN 170835Z AUTO 30003KT 7SM CLR 16/16 A3015 RMK AO2 T01630161
KFIN 170815Z AUTO 00000KT 7SM CLR 16/16 A3015 RMK AO2 T01630160
KFIN 170755Z AUTO 27003KT 10SM CLR 16/16 A3015 RMK AO2 T01630160